Pagrindinis puslapis
METAR-TAF:

METAR-TAF

Oro uostai :

Ventspilio oro uostas

Ventspilis, Latvija

platuma: 57-21-28N, ilguma: 021-32-39E, Aukštis: 6 m

Dabartinis oras

Ataskaita buvo paskelbta 36 minutes, ne 09:50 UTC
Vėjas 17 kt iš Pietvakarių
Temperatūra 6°C
Drėgmė 100%
Slėgis 1002 hPa
Matomumas 10 km arba daugiau
Mažai debesys ne aukštis 1200 ft
Apsiniaukę ne aukštis 4200 ft

METAR: EVVA 180950Z AUTO 23017KT 9999 FEW012 OVC042 06/06 Q1002

Laikas: 12:26 (10:26 UTC)


TAF: trūkstamas

Orai ataskaitas ir orų prognozės (METAR, TAF).

turimą stotys yra geltonos ir raudonos taškus žemėlapyje.

Perkelti pele per norėdami pamatyti stoties vardą.

Tada spustelėkite, norėdami matyti oro stebėjimo ir prognozės.

Norėdami pakeisti žemėlapį: spustelėkite ant žalios mygtukų su juodo kryžiaus žemyn,; žalią mygtuką su brūkšneliu, jei norite nutolinti; arba žalių rodyklių gretimoms žemėlapius.


METAR-TAF: